createdAt,value
2023-05-21T00:01:40.069Z,101191.72
2023-05-21T00:04:12.597Z,101188.16
2023-05-21T00:06:39.856Z,101192.47
2023-05-21T00:09:07.391Z,101188.00
2023-05-21T00:11:34.807Z,101188.81
2023-05-21T00:14:02.121Z,101181.72
2023-05-21T00:16:29.587Z,101191.28
2023-05-21T00:18:58.405Z,101193.88
2023-05-21T00:21:26.746Z,101193.81
2023-05-21T00:23:57.344Z,101187.59
2023-05-21T00:26:24.771Z,101188.47
2023-05-21T00:28:56.321Z,101174.47
2023-05-21T00:31:23.590Z,101182.22
2023-05-21T00:33:51.015Z,101177.81
2023-05-21T00:36:18.407Z,101179.50
2023-05-21T00:38:46.306Z,101170.66
2023-05-21T00:41:13.960Z,101177.72
2023-05-21T00:43:42.560Z,101177.56
2023-05-21T00:46:14.346Z,101167.88
2023-05-21T00:48:41.461Z,101167.81
2023-05-21T00:51:08.810Z,101166.94
2023-05-21T00:53:36.530Z,101167.72
2023-05-21T00:56:03.967Z,101174.63
2023-05-21T00:58:33.851Z,101173.66
2023-05-21T01:01:04.072Z,101177.06
2023-05-21T01:03:31.496Z,101174.44
2023-05-21T01:06:01.091Z,101171.75
2023-05-21T01:08:29.077Z,101169.06
2023-05-21T01:10:57.284Z,101167.16
2023-05-21T01:13:25.196Z,101168.84
2023-05-21T01:15:54.135Z,101164.41
2023-05-21T01:18:22.739Z,101164.41
2023-05-21T01:20:50.571Z,101148.47
2023-05-21T01:23:18.252Z,101164.31
2023-05-21T01:25:45.929Z,101156.44
2023-05-21T01:28:13.625Z,101157.31
2023-05-21T01:30:42.973Z,101161.69
2023-05-21T01:33:13.538Z,101157.25
2023-05-21T01:36:07.915Z,101158.13
2023-05-21T01:38:43.340Z,101158.03
2023-05-21T01:41:14.788Z,101159.75
2023-05-21T01:43:44.683Z,101147.47
2023-05-21T01:46:14.805Z,101147.53
2023-05-21T01:48:42.526Z,101145.84
2023-05-21T01:51:10.090Z,101147.59
2023-05-21T01:53:39.390Z,101140.63
2023-05-21T01:56:06.936Z,101141.47
2023-05-21T01:58:34.578Z,101133.56
2023-05-21T02:01:03.590Z,101136.16
2023-05-21T02:03:31.796Z,101133.47
2023-05-21T02:05:59.581Z,101138.72
2023-05-21T02:08:27.936Z,101140.44
2023-05-21T02:10:55.487Z,101146.50
2023-05-21T02:13:25.987Z,101143.00
2023-05-21T02:15:55.235Z,101140.34
2023-05-21T02:18:23.965Z,101141.19
2023-05-21T02:20:51.620Z,101149.91
2023-05-21T02:23:18.749Z,101151.59
2023-05-21T02:25:45.994Z,101147.22
2023-05-21T02:28:13.223Z,101155.00
2023-05-21T02:30:40.438Z,101157.59
2023-05-21T02:33:09.488Z,101158.34
2023-05-21T02:35:37.431Z,101161.84
2023-05-21T02:38:05.125Z,101160.06
2023-05-21T02:40:33.519Z,101160.03
2023-05-21T02:43:01.249Z,101153.06
2023-05-21T02:45:31.382Z,101153.00
2023-05-21T02:47:58.952Z,101152.97
2023-05-21T02:50:26.377Z,101157.41
2023-05-21T02:53:00.462Z,101155.63
2023-05-21T02:55:28.739Z,101154.75
2023-05-21T02:57:56.294Z,101150.31
2023-05-21T03:00:23.448Z,101159.88
2023-05-21T03:02:51.182Z,101146.75
2023-05-21T03:05:18.362Z,101143.97
2023-05-21T03:07:45.541Z,101147.41
2023-05-21T03:10:12.797Z,101151.56
2023-05-21T03:12:39.837Z,101150.69
2023-05-21T03:15:07.222Z,101149.69
2023-05-21T03:17:34.669Z,101146.19
2023-05-21T03:20:01.915Z,101147.06
2023-05-21T03:22:29.256Z,101153.16
2023-05-21T03:24:56.646Z,101150.66
2023-05-21T03:27:24.070Z,101154.19
2023-05-21T03:29:52.530Z,101149.03
2023-05-21T03:32:19.905Z,101147.25
2023-05-21T03:34:49.574Z,101146.28
2023-05-21T03:37:19.147Z,101150.69
2023-05-21T03:39:46.588Z,101147.28
2023-05-21T03:42:14.621Z,101146.41
2023-05-21T03:44:46.929Z,101150.72
2023-05-21T03:47:49.959Z,101150.69
2023-05-21T03:50:17.820Z,101153.16
2023-05-21T03:52:45.566Z,101154.91
2023-05-21T03:55:12.712Z,101159.31
2023-05-21T03:57:40.792Z,101162.91
2023-05-21T04:00:09.822Z,101165.59
2023-05-21T04:02:42.927Z,101159.44
2023-05-21T04:05:11.899Z,101156.84
2023-05-21T04:07:40.073Z,101163.81
2023-05-21T04:10:08.116Z,101155.03
2023-05-21T04:12:35.373Z,101150.72
2023-05-21T04:15:04.682Z,101159.44
2023-05-21T04:17:32.054Z,101159.44
2023-05-21T04:19:59.578Z,101159.34
2023-05-21T04:22:29.829Z,101161.00
2023-05-21T04:24:57.737Z,101157.56
2023-05-21T04:27:29.047Z,101158.44
2023-05-21T04:29:58.334Z,101154.06
2023-05-21T04:32:25.554Z,101155.03
2023-05-21T04:34:52.684Z,101151.47
2023-05-21T04:37:20.088Z,101158.44
2023-05-21T04:39:47.307Z,101156.72
2023-05-21T04:42:14.860Z,101162.81
2023-05-21T04:44:44.946Z,101165.53
2023-05-21T04:47:17.435Z,101161.25
2023-05-21T04:49:48.020Z,101167.31
2023-05-21T04:52:15.675Z,101173.50
2023-05-21T04:54:43.483Z,101147.88
2023-05-21T04:57:14.316Z,101173.59
2023-05-21T04:59:48.475Z,101171.16
2023-05-21T05:02:17.747Z,101167.72
2023-05-21T05:04:51.345Z,101176.44
2023-05-21T05:07:22.842Z,101178.25
2023-05-21T05:09:52.051Z,101180.09
2023-05-21T05:12:23.159Z,101190.53
2023-05-21T05:14:54.426Z,101194.94
2023-05-21T05:17:25.744Z,101195.00
2023-05-21T05:19:55.256Z,101192.41
2023-05-21T05:22:27.310Z,101192.50
2023-05-21T05:24:55.873Z,101196.94
2023-05-21T05:27:23.714Z,101195.28
2023-05-21T05:29:50.992Z,101197.00
2023-05-21T05:32:18.546Z,101193.47
2023-05-21T05:34:47.022Z,101197.84
2023-05-21T05:37:14.783Z,101197.03
2023-05-21T05:39:42.098Z,101196.22
2023-05-21T05:42:09.247Z,101193.66
2023-05-21T05:44:36.252Z,101197.25
2023-05-21T05:47:04.214Z,101206.94
2023-05-21T05:49:32.723Z,101203.53
2023-05-21T05:52:02.310Z,101206.25
2023-05-21T05:54:35.009Z,101205.50
2023-05-21T05:57:03.538Z,101205.50
2023-05-21T05:59:37.791Z,101212.53
2023-05-21T06:02:28.120Z,101213.53
2023-05-21T06:05:13.837Z,101199.59
2023-05-21T06:07:45.010Z,101211.97
2023-05-21T06:10:24.975Z,101215.56
2023-05-21T06:12:53.671Z,101206.91
2023-05-21T06:15:56.375Z,101207.88
2023-05-21T06:18:20.629Z,101210.59
2023-05-21T06:20:48.533Z,101207.16
2023-05-21T06:23:17.238Z,101201.13
2023-05-21T06:25:46.158Z,101206.47
2023-05-21T06:28:13.678Z,101203.97
2023-05-21T06:30:40.812Z,101202.28
2023-05-21T06:33:08.502Z,101206.72
2023-05-21T06:35:38.094Z,101206.81
2023-05-21T06:38:05.868Z,101205.16
2023-05-21T06:40:32.955Z,101214.00
2023-05-21T06:43:00.619Z,101211.47
2023-05-21T06:45:37.260Z,101213.28
2023-05-21T06:48:41.306Z,101217.72
2023-05-21T06:51:08.678Z,101215.19
2023-05-21T06:53:54.225Z,101214.41
2023-05-21T06:56:36.154Z,101209.22
2023-05-21T06:59:03.505Z,101206.63
2023-05-21T07:01:31.205Z,101218.97
2023-05-21T07:03:58.589Z,101225.28
2023-05-21T07:06:25.988Z,101219.22
2023-05-21T07:08:53.634Z,101219.31
2023-05-21T07:11:21.603Z,101219.31
2023-05-21T07:13:48.861Z,101226.31
2023-05-21T07:16:18.311Z,101226.47
2023-05-21T07:18:48.300Z,101223.81
2023-05-21T07:21:15.929Z,101234.31
2023-05-21T07:23:43.385Z,101240.53
2023-05-21T07:26:10.978Z,101234.38
2023-05-21T07:28:38.585Z,101230.06
2023-05-21T07:31:05.974Z,101231.78
2023-05-21T07:33:39.439Z,101241.44
2023-05-21T07:36:09.198Z,101232.75
2023-05-21T07:38:36.656Z,101233.66
2023-05-21T07:41:04.232Z,101236.34
2023-05-21T07:43:36.531Z,101232.81
2023-05-21T07:46:04.038Z,101234.59
2023-05-21T07:48:32.144Z,101234.59
2023-05-21T07:51:02.123Z,101235.53
2023-05-21T07:53:32.553Z,101232.94
2023-05-21T07:56:06.049Z,101238.19
2023-05-21T07:58:35.372Z,101239.91
2023-05-21T08:01:03.393Z,101246.06
2023-05-21T08:03:32.639Z,101248.66
2023-05-21T08:06:00.441Z,101251.25
2023-05-21T08:08:27.851Z,101245.09
2023-05-21T08:10:57.438Z,101245.94
2023-05-21T08:13:27.278Z,101242.44
2023-05-21T08:15:55.532Z,101242.50
2023-05-21T08:18:24.085Z,101253.84
2023-05-21T08:20:53.662Z,101248.56
2023-05-21T08:23:21.893Z,101252.09
2023-05-21T08:25:53.907Z,101248.72
2023-05-21T08:28:23.997Z,101252.19
2023-05-21T08:30:52.333Z,101245.19
2023-05-21T08:33:21.090Z,101249.66
2023-05-21T08:35:49.790Z,101244.44
2023-05-21T08:38:30.568Z,101241.81
2023-05-21T08:41:23.330Z,101247.94
2023-05-21T08:43:56.119Z,101243.56
2023-05-21T08:46:24.184Z,101246.19
2023-05-21T08:48:55.357Z,101237.44
2023-05-21T08:51:24.370Z,101242.75
2023-05-21T08:53:53.228Z,101241.00
2023-05-21T08:56:21.619Z,101234.84
2023-05-21T08:58:54.444Z,101233.25
2023-05-21T09:01:26.458Z,101226.22
2023-05-21T09:04:19.556Z,101231.47
2023-05-21T09:06:50.706Z,101234.97
2023-05-21T09:09:34.759Z,101231.47
2023-05-21T09:12:02.418Z,101225.34
2023-05-21T09:14:29.948Z,101227.22
2023-05-21T09:17:14.198Z,101230.72
2023-05-21T09:20:01.312Z,101235.16
2023-05-21T09:22:29.621Z,101236.00
2023-05-21T09:24:59.247Z,101243.88
2023-05-21T09:27:27.024Z,101240.44
2023-05-21T09:29:54.456Z,101243.06
2023-05-21T09:32:21.641Z,101242.22
2023-05-21T09:34:50.567Z,101234.28
2023-05-21T09:37:27.003Z,101236.97
2023-05-21T09:39:57.390Z,101243.97
2023-05-21T09:42:24.837Z,101238.72
2023-05-21T09:44:51.984Z,101236.13
2023-05-21T09:47:20.678Z,101233.47
2023-05-21T09:49:47.802Z,101233.47
2023-05-21T09:52:24.487Z,101230.81
2023-05-21T09:54:52.230Z,101233.50
2023-05-21T09:57:26.724Z,101243.16
2023-05-21T09:59:54.706Z,101228.19
2023-05-21T10:02:23.443Z,101222.94
2023-05-21T10:04:51.548Z,101226.44
2023-05-21T10:07:19.717Z,101230.84
2023-05-21T10:09:47.918Z,101229.09
2023-05-21T10:12:18.447Z,101234.34
2023-05-21T10:14:47.425Z,101236.09
2023-05-21T10:17:15.905Z,101232.59
2023-05-21T10:19:47.071Z,101236.13
2023-05-21T10:22:14.620Z,101240.53
2023-05-21T10:24:43.251Z,101238.75
2023-05-21T10:27:12.281Z,101239.63
2023-05-21T10:29:42.209Z,101251.06
2023-05-21T10:32:10.645Z,101253.69
2023-05-21T10:34:38.670Z,101257.19
2023-05-21T10:37:08.515Z,101246.66
2023-05-21T10:39:41.733Z,101248.44
2023-05-21T10:42:25.174Z,101240.50
2023-05-21T10:45:04.703Z,101235.19
2023-05-21T10:47:54.652Z,101236.09
2023-05-21T10:50:25.720Z,101236.09
2023-05-21T10:53:02.980Z,101239.63
2023-05-21T10:55:33.250Z,101237.88
2023-05-21T10:58:10.113Z,101228.22
2023-05-21T11:00:37.941Z,101233.53
2023-05-21T11:03:06.016Z,101228.22
2023-05-21T11:05:40.679Z,101234.38
2023-05-21T11:08:28.106Z,101234.38
2023-05-21T11:10:58.503Z,101228.19
2023-05-21T11:13:26.698Z,101231.66
2023-05-21T11:16:00.335Z,101222.00
2023-05-21T11:18:38.090Z,101218.47
2023-05-21T11:21:06.588Z,101220.16
2023-05-21T11:23:52.186Z,101225.47
2023-05-21T11:26:19.970Z,101227.16
2023-05-21T11:28:47.198Z,101219.16
2023-05-21T11:31:25.440Z,101219.16
2023-05-21T11:34:11.421Z,101219.97
2023-05-21T11:36:39.254Z,101213.84
2023-05-21T11:39:13.382Z,101212.91
2023-05-21T11:42:02.440Z,101208.50
2023-05-21T11:44:44.922Z,101207.63
2023-05-21T11:47:12.876Z,101206.75
2023-05-21T11:49:40.022Z,101207.56
2023-05-21T11:52:08.321Z,101207.47
2023-05-21T11:54:40.325Z,101210.91
2023-05-21T11:57:08.568Z,101212.63
2023-05-21T11:59:36.546Z,101202.03
2023-05-21T12:02:04.281Z,101196.63
2023-05-21T12:04:38.463Z,101192.25
2023-05-21T12:07:07.585Z,101195.69
2023-05-21T12:09:43.978Z,101192.06
2023-05-21T12:12:13.128Z,101198.22
2023-05-21T12:14:40.773Z,101197.38
2023-05-21T12:17:10.857Z,101195.63
2023-05-21T12:19:38.132Z,101188.59
2023-05-21T12:22:05.902Z,101186.69
2023-05-21T12:24:33.712Z,101183.94
2023-05-21T12:27:02.076Z,101181.25
2023-05-21T12:29:30.614Z,101183.81
2023-05-21T12:32:01.911Z,101180.38
2023-05-21T12:34:55.020Z,101187.41
2023-05-21T12:37:23.801Z,101182.00
2023-05-21T12:39:52.178Z,101185.44
2023-05-21T12:42:31.614Z,101181.91
2023-05-21T12:44:58.740Z,101181.91
2023-05-21T12:47:27.252Z,101182.81
2023-05-21T12:49:58.146Z,101175.88
2023-05-21T12:52:25.580Z,101184.53
2023-05-21T12:55:00.033Z,101181.13
2023-05-21T12:57:28.687Z,101184.63
2023-05-21T13:00:00.731Z,101171.47
2023-05-21T13:02:41.653Z,101183.00
2023-05-21T13:05:10.722Z,101178.63
2023-05-21T13:07:40.184Z,101110.19
2023-05-21T13:10:11.753Z,101176.06
2023-05-21T13:13:00.641Z,101175.22
2023-05-21T13:15:38.877Z,101180.59
2023-05-21T13:18:06.274Z,101179.75
2023-05-21T13:20:33.325Z,101178.03
2023-05-21T13:23:01.268Z,101177.22
2023-05-21T13:25:30.121Z,101182.38
2023-05-21T13:27:57.938Z,101177.13
2023-05-21T13:30:25.055Z,101169.22
2023-05-21T13:32:52.779Z,101183.38
2023-05-21T13:35:20.243Z,101175.38
2023-05-21T13:37:47.485Z,101178.81
2023-05-21T13:40:15.910Z,101183.31
2023-05-21T13:42:46.815Z,101188.56
2023-05-21T13:45:16.422Z,101184.09
2023-05-21T13:47:44.473Z,101185.81
2023-05-21T13:50:12.042Z,101185.81
2023-05-21T13:52:39.150Z,101178.69
2023-05-21T13:55:07.254Z,101175.09
2023-05-21T13:57:34.593Z,101180.34
2023-05-21T14:00:02.058Z,101180.28
2023-05-21T14:02:34.942Z,101181.22
2023-05-21T14:05:02.245Z,101176.81
2023-05-21T14:07:29.611Z,101182.13
2023-05-21T14:09:57.197Z,101170.66
2023-05-21T14:12:24.279Z,101183.78
2023-05-21T14:14:53.126Z,101183.78
2023-05-21T14:17:20.394Z,101188.13
2023-05-21T14:19:50.646Z,101183.66
2023-05-21T14:22:18.220Z,101181.16
2023-05-21T14:24:47.525Z,101186.41
2023-05-21T14:27:15.992Z,101180.19
2023-05-21T14:29:44.136Z,101184.75
2023-05-21T14:32:11.337Z,101181.28
2023-05-21T14:34:39.551Z,101179.50
2023-05-21T14:37:06.868Z,101182.22
2023-05-21T14:39:34.381Z,101183.06
2023-05-21T14:42:03.452Z,101175.16
2023-05-21T14:44:31.117Z,101176.94
2023-05-21T14:46:58.440Z,101180.50
2023-05-21T14:49:25.662Z,101170.78
2023-05-21T14:51:52.857Z,101178.72
2023-05-21T14:54:29.128Z,101180.59
2023-05-21T14:56:56.552Z,101185.00
2023-05-21T14:59:24.205Z,101192.97
2023-05-21T15:01:52.064Z,101185.81
2023-05-21T15:04:19.637Z,101188.50
2023-05-21T15:06:46.824Z,101179.72
2023-05-21T15:09:13.859Z,101189.41
2023-05-21T15:11:44.064Z,101186.75
2023-05-21T15:14:11.394Z,101193.84
2023-05-21T15:16:38.583Z,101187.66
2023-05-21T15:19:05.957Z,101192.94
2023-05-21T15:21:33.095Z,101192.88
2023-05-21T15:24:00.411Z,101191.09
2023-05-21T15:26:27.791Z,101197.19
2023-05-21T15:28:55.204Z,101188.34
2023-05-21T15:31:22.369Z,101184.81
2023-05-21T15:33:49.414Z,101184.88
2023-05-21T15:36:16.671Z,101190.00
2023-05-21T15:38:45.221Z,101193.59
2023-05-21T15:41:12.639Z,101183.94
2023-05-21T15:43:40.015Z,101185.72
2023-05-21T15:46:07.197Z,101184.78
2023-05-21T15:48:34.187Z,101187.56
2023-05-21T15:51:01.359Z,101182.19
2023-05-21T15:53:28.654Z,101189.22
2023-05-21T15:55:57.241Z,101191.00
2023-05-21T15:58:24.833Z,101184.03
2023-05-21T16:00:52.025Z,101187.59
2023-05-21T16:03:19.663Z,101187.53
2023-05-21T16:05:47.449Z,101176.94
2023-05-21T16:08:15.632Z,101188.47
2023-05-21T16:10:43.231Z,101185.91
2023-05-21T16:13:12.804Z,101181.53
2023-05-21T16:15:40.728Z,101174.47
2023-05-21T16:18:10.649Z,101178.91
2023-05-21T16:20:38.940Z,101180.66
2023-05-21T16:23:06.909Z,101178.03
2023-05-21T16:25:36.536Z,101176.28
2023-05-21T16:28:03.931Z,101179.03
2023-05-21T16:30:30.973Z,101174.59
2023-05-21T16:32:58.362Z,101177.25
2023-05-21T16:35:26.646Z,101171.94
2023-05-21T16:37:55.691Z,101173.81
2023-05-21T16:40:23.208Z,101173.81
2023-05-21T16:42:50.582Z,101172.94
2023-05-21T16:45:24.102Z,101176.47
2023-05-21T16:47:51.838Z,101168.59
2023-05-21T16:50:22.275Z,101172.16
2023-05-21T16:52:50.064Z,101170.38
2023-05-21T16:55:17.387Z,101173.91
2023-05-21T16:57:44.880Z,101172.16
2023-05-21T17:00:12.560Z,101175.72
2023-05-21T17:02:39.813Z,101173.97
2023-05-21T17:05:07.242Z,101180.97
2023-05-21T17:07:34.645Z,101173.91
2023-05-21T17:10:02.010Z,101179.25
2023-05-21T17:12:29.043Z,101173.09
2023-05-21T17:14:58.704Z,101175.72
2023-05-21T17:17:26.290Z,101178.38
2023-05-21T17:19:54.022Z,101180.16
2023-05-21T17:22:22.321Z,101175.75
2023-05-21T17:25:05.854Z,101183.69
2023-05-21T17:27:33.776Z,101175.59
2023-05-21T17:30:01.200Z,101186.25
2023-05-21T17:32:33.889Z,101182.78
2023-05-21T17:35:04.745Z,101185.28
2023-05-21T17:37:32.166Z,101182.78
2023-05-21T17:39:59.309Z,101176.53
2023-05-21T17:42:26.839Z,101188.94
2023-05-21T17:44:55.217Z,101185.38
2023-05-21T17:47:22.692Z,101179.25
2023-05-21T17:49:50.719Z,101182.84
2023-05-21T17:52:18.191Z,101195.22
2023-05-21T17:54:45.758Z,101196.91
2023-05-21T17:57:16.458Z,101190.78
2023-05-21T17:59:45.663Z,101197.00
2023-05-21T18:02:13.909Z,101190.78
2023-05-21T18:04:41.297Z,101199.63
2023-05-21T18:07:08.683Z,101195.22
2023-05-21T18:09:36.469Z,101209.38
2023-05-21T18:12:08.470Z,101212.91
2023-05-21T18:14:35.930Z,101216.44
2023-05-21T18:17:03.673Z,101217.38
2023-05-21T18:19:31.887Z,101220.91
2023-05-21T18:21:59.129Z,101223.56
2023-05-21T18:24:26.301Z,101226.19
2023-05-21T18:26:53.680Z,101235.00
2023-05-21T18:29:23.913Z,101226.19
2023-05-21T18:31:51.192Z,101228.84
2023-05-21T18:34:19.143Z,101240.34
2023-05-21T18:36:49.685Z,101239.47
2023-05-21T18:39:16.983Z,101242.97
2023-05-21T18:41:44.191Z,101249.13
2023-05-21T18:44:11.371Z,101248.28
2023-05-21T18:46:39.324Z,101244.75
2023-05-21T18:49:06.565Z,101248.25
2023-05-21T18:51:33.873Z,101250.03
2023-05-21T18:54:01.075Z,101244.78
2023-05-21T18:56:28.201Z,101254.50
2023-05-21T18:58:56.593Z,101248.34
2023-05-21T19:01:24.109Z,101254.50
2023-05-21T19:03:51.252Z,101254.53
2023-05-21T19:06:18.390Z,101258.09
2023-05-21T19:08:46.555Z,101257.16
2023-05-21T19:11:13.645Z,101261.59
2023-05-21T19:13:40.807Z,101255.44
2023-05-21T19:16:12.058Z,101264.25
2023-05-21T19:18:43.401Z,101263.41
2023-05-21T19:24:16.344Z,101268.66
2023-05-21T19:26:43.706Z,101267.78
2023-05-21T19:29:11.776Z,101266.06
2023-05-21T19:31:39.801Z,101269.56
2023-05-21T19:34:11.137Z,101272.19
2023-05-21T19:36:51.598Z,101266.94
2023-05-21T19:39:20.053Z,101262.50
2023-05-21T19:41:47.341Z,101259.00
2023-05-21T19:44:14.626Z,101265.19
2023-05-21T19:46:50.826Z,101271.34
2023-05-21T19:49:20.135Z,101269.59
2023-05-21T19:51:49.308Z,101275.75
2023-05-21T19:54:16.722Z,101282.78
2023-05-21T19:56:47.014Z,101289.84
2023-05-21T19:59:14.121Z,101289.78
2023-05-21T20:01:43.546Z,101292.41
2023-05-21T20:04:11.096Z,101295.94
2023-05-21T20:06:38.514Z,101297.72
2023-05-21T20:09:05.927Z,101297.69
2023-05-21T20:11:33.494Z,101307.38
2023-05-21T20:14:02.430Z,101302.97
2023-05-21T20:16:30.371Z,101305.59
2023-05-21T20:18:58.457Z,101308.22
2023-05-21T20:21:33.686Z,101312.63
2023-05-21T20:24:04.325Z,101312.63
2023-05-21T20:26:42.045Z,101314.38
2023-05-21T20:29:09.458Z,101314.38
2023-05-21T20:31:37.100Z,101316.16
2023-05-21T20:34:12.562Z,101319.66
2023-05-21T20:36:43.854Z,101315.28
2023-05-21T20:39:12.421Z,101328.44
2023-05-21T20:41:40.185Z,101328.44
2023-05-21T20:44:08.061Z,101335.44
2023-05-21T20:46:39.101Z,101331.94
2023-05-21T20:49:07.076Z,101332.81
2023-05-21T20:51:35.548Z,101337.22
2023-05-21T20:54:03.455Z,101335.47
2023-05-21T20:56:42.131Z,101343.38
2023-05-21T20:59:11.404Z,101339.91
2023-05-21T21:01:41.656Z,101334.59
2023-05-21T21:04:10.202Z,101341.63
2023-05-21T21:06:39.113Z,101346.91
2023-05-21T21:09:09.018Z,101337.25
2023-05-21T21:11:36.844Z,101334.59
2023-05-21T21:14:04.982Z,101339.88
2023-05-21T21:16:33.670Z,101341.59
2023-05-21T21:19:01.585Z,101335.47
2023-05-21T21:21:28.974Z,101336.34
2023-05-21T21:23:56.146Z,101338.09
2023-05-21T21:26:23.771Z,101332.81
2023-05-21T21:28:51.006Z,101331.06
2023-05-21T21:31:18.068Z,101330.16
2023-05-21T21:33:45.167Z,101298.47
2023-05-21T21:36:15.238Z,101329.28
2023-05-21T21:38:42.677Z,101332.81
2023-05-21T21:41:10.053Z,101338.97
2023-05-21T21:43:37.399Z,101332.84
2023-05-21T21:46:04.584Z,101334.56
2023-05-21T21:48:32.190Z,101337.22
2023-05-21T21:50:59.399Z,101333.72
2023-05-21T21:53:26.806Z,101334.59
2023-05-21T21:55:56.472Z,101334.56
2023-05-21T21:58:24.115Z,101340.75
2023-05-21T22:00:51.621Z,101339.00
2023-05-21T22:03:19.098Z,101335.44
2023-05-21T22:05:46.581Z,101337.22
2023-05-21T22:08:13.756Z,101338.06
2023-05-21T22:10:40.948Z,101338.97
2023-05-21T22:13:08.321Z,101340.75
2023-05-21T22:15:35.786Z,101343.41
2023-05-21T22:18:03.737Z,101341.63
2023-05-21T22:20:31.253Z,101342.50
2023-05-21T22:22:58.501Z,101346.91
2023-05-21T22:25:26.257Z,101335.47
2023-05-21T22:27:53.622Z,101336.31
2023-05-21T22:30:20.954Z,101339.84
2023-05-21T22:32:48.219Z,101308.97
2023-05-21T22:35:15.312Z,101335.41
2023-05-21T22:37:42.353Z,101339.84
2023-05-21T22:40:09.775Z,101341.59
2023-05-21T22:42:37.099Z,101335.41
2023-05-21T22:45:04.829Z,101331.91
2023-05-21T22:47:35.558Z,101338.03
2023-05-21T22:50:04.667Z,101340.66
2023-05-21T22:52:32.341Z,101334.47
2023-05-21T22:55:00.824Z,101341.50
2023-05-21T22:57:28.204Z,101340.59
2023-05-21T22:59:55.381Z,101339.66
2023-05-21T23:02:22.730Z,101334.41
2023-05-21T23:04:49.896Z,101334.38
2023-05-21T23:07:17.085Z,101338.75
2023-05-21T23:09:44.630Z,101340.50
2023-05-21T23:12:12.750Z,101336.97
2023-05-21T23:14:39.849Z,101322.91
2023-05-21T23:17:07.851Z,101337.84
2023-05-21T23:19:35.098Z,101329.94
2023-05-21T23:22:02.368Z,101329.03
2023-05-21T23:24:29.811Z,101329.91
2023-05-21T23:27:03.197Z,101327.31
2023-05-21T23:29:30.888Z,101329.97
2023-05-21T23:31:58.310Z,101329.91
2023-05-21T23:34:26.035Z,101340.41
2023-05-21T23:36:53.416Z,101327.31
2023-05-21T23:39:21.261Z,101333.38
2023-05-21T23:41:48.832Z,101332.47
2023-05-21T23:44:16.338Z,101328.94
2023-05-21T23:46:44.105Z,101328.94
2023-05-21T23:49:11.865Z,101331.59
2023-05-21T23:51:39.760Z,101328.06
2023-05-21T23:54:07.033Z,101323.69
2023-05-21T23:56:34.154Z,101319.28
2023-05-21T23:59:01.130Z,101318.38
